createdAt,value
2022-08-29T00:01:21.959Z,26.49
2022-08-29T00:03:50.503Z,26.24
2022-08-29T00:06:18.317Z,25.96
2022-08-29T00:08:45.472Z,25.89
2022-08-29T00:11:13.583Z,25.98
2022-08-29T00:13:40.891Z,25.97
2022-08-29T00:16:08.867Z,26.11
2022-08-29T00:18:36.826Z,25.97
2022-08-29T00:21:05.173Z,26.08
2022-08-29T00:23:32.609Z,26.08
2022-08-29T00:26:00.033Z,25.89
2022-08-29T00:28:27.186Z,25.94
2022-08-29T00:30:54.559Z,25.86
2022-08-29T00:33:21.985Z,25.96
2022-08-29T00:35:49.155Z,25.84
2022-08-29T00:38:19.177Z,25.93
2022-08-29T00:40:52.282Z,26.06
2022-08-29T00:43:21.239Z,25.81
2022-08-29T00:45:51.838Z,25.85
2022-08-29T00:48:19.226Z,25.90
2022-08-29T00:50:53.024Z,25.54
2022-08-29T00:53:23.126Z,25.82
2022-08-29T00:55:50.678Z,25.62
2022-08-29T00:58:21.884Z,25.77
2022-08-29T01:00:49.586Z,25.55
2022-08-29T01:03:17.167Z,25.58
2022-08-29T01:05:44.312Z,25.62
2022-08-29T01:08:13.243Z,25.74
2022-08-29T01:10:59.192Z,25.51
2022-08-29T01:13:28.971Z,25.75
2022-08-29T01:15:56.181Z,25.63
2022-08-29T01:18:23.410Z,25.52
2022-08-29T01:20:50.751Z,25.54
2022-08-29T01:23:22.137Z,25.57
2022-08-29T01:25:50.901Z,25.41
2022-08-29T01:28:22.992Z,25.43
2022-08-29T01:30:57.386Z,25.38
2022-08-29T01:33:24.991Z,25.34
2022-08-29T01:35:52.530Z,25.36
2022-08-29T01:38:27.755Z,25.46
2022-08-29T01:40:56.556Z,25.11
2022-08-29T01:43:23.777Z,25.15
2022-08-29T01:45:51.048Z,25.15
2022-08-29T01:48:18.984Z,25.09
2022-08-29T01:50:46.667Z,25.38
2022-08-29T01:53:14.077Z,25.17
2022-08-29T01:55:42.452Z,25.28
2022-08-29T01:58:09.671Z,25.23
2022-08-29T02:00:37.204Z,25.14
2022-08-29T02:03:04.642Z,25.12
2022-08-29T02:05:31.794Z,25.20
2022-08-29T02:07:58.958Z,25.12
2022-08-29T02:10:26.348Z,25.18
2022-08-29T02:12:53.941Z,25.15
2022-08-29T02:15:21.377Z,25.15
2022-08-29T02:17:48.900Z,25.02
2022-08-29T02:20:16.116Z,25.09
2022-08-29T02:22:43.382Z,25.13
2022-08-29T02:25:29.296Z,25.25
2022-08-29T02:27:58.645Z,25.14
2022-08-29T02:30:26.138Z,25.04
2022-08-29T02:32:54.080Z,25.04
2022-08-29T02:35:22.650Z,25.00
2022-08-29T02:37:51.879Z,24.98
2022-08-29T02:40:19.211Z,25.13
2022-08-29T02:42:52.051Z,25.12
2022-08-29T02:45:19.879Z,25.04
2022-08-29T02:47:47.131Z,24.98
2022-08-29T02:50:14.834Z,24.89
2022-08-29T02:52:42.606Z,24.74
2022-08-29T02:55:11.004Z,24.83
2022-08-29T02:57:38.477Z,24.87
2022-08-29T03:00:08.670Z,24.95
2022-08-29T03:02:35.900Z,24.66
2022-08-29T03:05:03.816Z,24.48
2022-08-29T03:07:30.996Z,24.70
2022-08-29T03:09:58.200Z,24.75
2022-08-29T03:12:25.646Z,24.75
2022-08-29T03:14:55.456Z,24.45
2022-08-29T03:17:22.648Z,24.63
2022-08-29T03:19:50.103Z,24.62
2022-08-29T03:22:18.012Z,24.55
2022-08-29T03:24:45.148Z,24.67
2022-08-29T03:27:13.072Z,24.57
2022-08-29T03:29:40.296Z,24.49
2022-08-29T03:32:07.460Z,24.49
2022-08-29T03:34:34.883Z,24.51
2022-08-29T03:37:02.050Z,24.51
2022-08-29T03:39:29.571Z,24.56
2022-08-29T03:41:57.006Z,24.49
2022-08-29T03:44:24.512Z,24.48
2022-08-29T03:46:51.798Z,24.40
2022-08-29T03:49:19.312Z,24.51
2022-08-29T03:51:46.508Z,24.40
2022-08-29T03:54:13.665Z,24.35
2022-08-29T03:56:41.139Z,24.30
2022-08-29T03:59:08.874Z,24.26
2022-08-29T04:01:36.166Z,24.29
2022-08-29T04:04:03.923Z,24.32
2022-08-29T04:06:31.245Z,24.26
2022-08-29T04:08:59.138Z,24.39
2022-08-29T04:11:28.550Z,24.43
2022-08-29T04:13:55.827Z,24.36
2022-08-29T04:16:24.277Z,24.42
2022-08-29T04:18:51.744Z,24.41
2022-08-29T04:21:18.985Z,24.39
2022-08-29T04:23:46.395Z,24.33
2022-08-29T04:26:35.840Z,24.38
2022-08-29T04:29:04.715Z,24.36
2022-08-29T04:31:32.288Z,24.19
2022-08-29T04:33:59.563Z,24.33
2022-08-29T04:36:28.206Z,24.34
2022-08-29T04:38:55.664Z,24.27
2022-08-29T04:41:23.241Z,24.28
2022-08-29T04:43:50.451Z,24.28
2022-08-29T04:46:24.448Z,24.23
2022-08-29T04:48:52.388Z,24.43
2022-08-29T04:51:19.923Z,24.36
2022-08-29T04:53:48.205Z,24.37
2022-08-29T04:56:15.387Z,24.36
2022-08-29T04:58:44.036Z,24.44
2022-08-29T05:01:15.062Z,24.50
2022-08-29T05:03:42.588Z,24.42
2022-08-29T05:06:12.008Z,24.34
2022-08-29T05:08:40.869Z,24.39
2022-08-29T05:11:10.106Z,24.46
2022-08-29T05:13:37.728Z,24.57
2022-08-29T05:16:06.299Z,24.51
2022-08-29T05:18:33.579Z,24.61
2022-08-29T05:21:01.808Z,24.34
2022-08-29T05:23:30.026Z,24.49
2022-08-29T05:25:58.540Z,24.54
2022-08-29T05:28:29.652Z,24.61
2022-08-29T05:30:57.015Z,24.76
2022-08-29T05:33:24.978Z,24.79
2022-08-29T05:35:52.480Z,24.44
2022-08-29T05:38:19.831Z,24.66
2022-08-29T05:40:46.986Z,24.13
2022-08-29T05:43:14.517Z,24.59
2022-08-29T05:45:42.882Z,24.88
2022-08-29T05:48:10.293Z,24.68
2022-08-29T05:50:43.612Z,24.46
2022-08-29T05:53:13.010Z,24.67
2022-08-29T05:55:40.886Z,24.29
2022-08-29T05:58:08.095Z,24.54
2022-08-29T06:00:37.372Z,24.89
2022-08-29T06:03:05.695Z,24.85
2022-08-29T06:05:33.579Z,24.59
2022-08-29T06:08:01.370Z,24.67
2022-08-29T06:10:28.825Z,24.69
2022-08-29T06:12:56.106Z,24.58
2022-08-29T06:15:23.431Z,24.64
2022-08-29T06:17:50.973Z,24.76
2022-08-29T06:20:18.274Z,24.45
2022-08-29T06:22:45.494Z,24.85
2022-08-29T06:25:37.537Z,24.72
2022-08-29T06:28:00.223Z,24.81
2022-08-29T06:30:27.649Z,25.13
2022-08-29T06:32:54.865Z,25.13
2022-08-29T06:35:22.005Z,25.42
2022-08-29T06:37:50.096Z,25.37
2022-08-29T06:40:17.335Z,25.88
2022-08-29T06:42:44.551Z,25.87
2022-08-29T06:45:12.002Z,25.66
2022-08-29T06:47:39.166Z,25.88
2022-08-29T06:50:06.864Z,26.26
2022-08-29T06:52:35.623Z,26.35
2022-08-29T06:55:03.078Z,26.69
2022-08-29T06:57:30.238Z,26.94
2022-08-29T06:59:57.757Z,27.21
2022-08-29T07:02:25.297Z,27.46
2022-08-29T07:04:52.502Z,27.65
2022-08-29T07:07:19.972Z,27.97
2022-08-29T07:09:47.142Z,28.00
2022-08-29T07:12:14.315Z,28.03
2022-08-29T07:14:41.776Z,27.92
2022-08-29T07:17:08.964Z,28.33
2022-08-29T07:19:36.135Z,28.54
2022-08-29T07:22:07.122Z,28.97
2022-08-29T07:24:34.403Z,29.06
2022-08-29T07:27:01.733Z,29.07
2022-08-29T07:29:29.173Z,28.97
2022-08-29T07:31:56.388Z,28.81
2022-08-29T07:34:23.537Z,28.90
2022-08-29T07:36:50.973Z,29.16
2022-08-29T07:39:19.272Z,29.29
2022-08-29T07:41:46.682Z,29.25
2022-08-29T07:44:17.119Z,29.29
2022-08-29T07:46:44.468Z,29.50
2022-08-29T07:49:12.915Z,29.64
2022-08-29T07:51:44.311Z,29.76
2022-08-29T07:54:13.444Z,29.65
2022-08-29T07:56:41.595Z,29.82
2022-08-29T07:59:08.797Z,29.75
2022-08-29T08:01:36.116Z,30.07
2022-08-29T08:04:03.725Z,30.28
2022-08-29T08:06:31.771Z,30.24
2022-08-29T08:09:01.816Z,30.11
2022-08-29T08:11:29.253Z,30.38
2022-08-29T08:13:56.487Z,30.16
2022-08-29T08:16:26.163Z,30.26
2022-08-29T08:18:54.310Z,30.61
2022-08-29T08:21:21.567Z,30.19
2022-08-29T08:23:48.778Z,30.57
2022-08-29T08:26:16.283Z,30.80
2022-08-29T08:28:43.849Z,31.39
2022-08-29T08:31:14.301Z,31.13
2022-08-29T08:33:41.962Z,31.26
2022-08-29T08:36:22.674Z,31.21
2022-08-29T08:38:50.573Z,31.06
2022-08-29T08:41:31.455Z,31.43
2022-08-29T08:44:00.990Z,31.41
2022-08-29T08:46:42.139Z,31.67
2022-08-29T08:49:15.200Z,31.68
2022-08-29T08:51:53.188Z,31.66
2022-08-29T08:54:22.412Z,31.96
2022-08-29T08:56:51.823Z,31.70
2022-08-29T08:59:26.974Z,31.93
2022-08-29T09:02:06.709Z,31.21
2022-08-29T09:04:56.754Z,31.01
2022-08-29T09:07:30.215Z,31.53
2022-08-29T09:10:04.687Z,31.47
2022-08-29T09:12:38.909Z,31.53
2022-08-29T09:15:16.545Z,31.36
2022-08-29T09:17:45.196Z,32.04
2022-08-29T09:20:13.983Z,31.09
2022-08-29T09:22:41.821Z,31.33
2022-08-29T09:25:10.478Z,31.66
2022-08-29T09:27:38.282Z,31.40
2022-08-29T09:30:05.580Z,31.58
2022-08-29T09:32:33.192Z,31.76
2022-08-29T09:35:09.474Z,31.41
2022-08-29T09:37:37.635Z,31.53
2022-08-29T09:40:12.614Z,31.74
2022-08-29T09:42:46.222Z,31.96
2022-08-29T09:45:17.921Z,31.79
2022-08-29T09:47:45.483Z,31.57
2022-08-29T09:50:20.622Z,31.89
2022-08-29T09:52:55.416Z,32.07
2022-08-29T09:55:24.562Z,31.81
2022-08-29T09:57:53.801Z,32.04
2022-08-29T10:00:25.586Z,32.01
2022-08-29T10:02:56.577Z,31.98
2022-08-29T10:05:28.854Z,31.84
2022-08-29T10:07:58.002Z,32.02
2022-08-29T10:10:30.785Z,32.07
2022-08-29T10:13:15.415Z,31.53
2022-08-29T10:16:15.207Z,31.70
2022-08-29T10:18:44.273Z,32.01
2022-08-29T10:21:16.032Z,31.77
2022-08-29T10:23:51.080Z,31.84
2022-08-29T10:26:27.034Z,32.24
2022-08-29T10:29:14.965Z,32.09
2022-08-29T10:31:47.067Z,32.09
2022-08-29T10:34:29.866Z,31.89
2022-08-29T10:37:01.125Z,32.07
2022-08-29T10:39:28.936Z,32.39
2022-08-29T10:42:00.596Z,32.45
2022-08-29T10:44:48.411Z,32.40
2022-08-29T10:47:26.987Z,31.95
2022-08-29T10:50:12.858Z,31.80
2022-08-29T10:52:47.608Z,32.58
2022-08-29T10:55:28.349Z,32.45
2022-08-29T10:57:56.199Z,32.24
2022-08-29T11:00:27.272Z,31.92
2022-08-29T11:02:54.387Z,32.10
2022-08-29T11:05:26.007Z,32.11
2022-08-29T11:07:56.568Z,31.79
2022-08-29T11:10:25.102Z,31.80
2022-08-29T11:12:59.169Z,32.05
2022-08-29T11:15:45.553Z,32.34
2022-08-29T11:18:25.101Z,32.15
2022-08-29T11:20:57.902Z,32.40
2022-08-29T11:23:30.981Z,32.34
2022-08-29T11:25:58.455Z,32.42
2022-08-29T11:31:19.899Z,31.92
2022-08-29T11:33:51.870Z,31.98
2022-08-29T11:36:38.029Z,32.08
2022-08-29T11:39:05.144Z,32.12
2022-08-29T11:41:33.841Z,31.77
2022-08-29T11:44:08.154Z,31.82
2022-08-29T11:46:40.278Z,31.72
2022-08-29T11:49:28.647Z,31.92
2022-08-29T11:52:00.314Z,32.09
2022-08-29T11:54:30.473Z,31.77
2022-08-29T11:57:00.929Z,31.98
2022-08-29T11:59:50.777Z,32.12
2022-08-29T12:02:39.338Z,32.01
2022-08-29T12:05:20.748Z,31.84
2022-08-29T12:07:49.031Z,32.04
2022-08-29T12:10:23.709Z,32.04
2022-08-29T12:12:58.989Z,32.19
2022-08-29T12:15:26.397Z,31.80
2022-08-29T12:18:03.414Z,31.96
2022-08-29T12:20:35.680Z,32.22
2022-08-29T12:23:06.283Z,32.18
2022-08-29T12:25:41.427Z,32.24
2022-08-29T12:28:17.761Z,32.08
2022-08-29T12:30:47.902Z,32.24
2022-08-29T12:33:20.484Z,32.25
2022-08-29T12:35:48.538Z,32.10
2022-08-29T12:38:42.101Z,32.48
2022-08-29T12:41:15.973Z,32.69
2022-08-29T12:43:43.854Z,32.50
2022-08-29T12:46:16.111Z,32.57
2022-08-29T12:48:46.285Z,32.11
2022-08-29T12:51:38.572Z,32.27
2022-08-29T12:54:06.164Z,32.24
2022-08-29T12:56:33.727Z,32.29
2022-08-29T12:59:01.676Z,32.70
2022-08-29T13:01:30.948Z,32.40
2022-08-29T13:04:06.436Z,32.48
2022-08-29T13:06:34.256Z,32.63
2022-08-29T13:09:02.043Z,32.14
2022-08-29T13:11:30.556Z,31.90
2022-08-29T13:14:07.305Z,32.33
2022-08-29T13:16:35.033Z,32.31
2022-08-29T13:19:11.460Z,32.37
2022-08-29T13:21:39.287Z,32.13
2022-08-29T13:24:11.496Z,32.21
2022-08-29T13:27:03.085Z,32.26
2022-08-29T13:29:40.355Z,32.31
2022-08-29T13:32:11.072Z,32.27
2022-08-29T13:34:38.210Z,32.22
2022-08-29T13:37:10.529Z,32.10
2022-08-29T13:39:47.651Z,31.80
2022-08-29T13:42:16.254Z,31.72
2022-08-29T13:44:49.479Z,31.77
2022-08-29T13:47:16.857Z,31.56
2022-08-29T13:49:44.023Z,31.50
2022-08-29T13:52:11.708Z,31.60
2022-08-29T13:54:41.524Z,31.63
2022-08-29T13:57:12.553Z,31.46
2022-08-29T13:59:40.437Z,31.35
2022-08-29T14:02:09.374Z,31.48
2022-08-29T14:04:39.878Z,31.69
2022-08-29T14:07:12.261Z,31.43
2022-08-29T14:09:41.145Z,31.22
2022-08-29T14:12:08.675Z,31.56
2022-08-29T14:14:35.859Z,31.42
2022-08-29T14:17:03.371Z,31.27
2022-08-29T14:19:30.860Z,31.54
2022-08-29T14:22:00.499Z,31.42
2022-08-29T14:24:29.158Z,31.65
2022-08-29T14:27:01.861Z,31.34
2022-08-29T14:29:31.063Z,31.27
2022-08-29T14:31:58.728Z,31.54
2022-08-29T14:34:30.580Z,31.41
2022-08-29T14:36:58.435Z,30.89
2022-08-29T14:39:26.539Z,31.28
2022-08-29T14:41:54.351Z,31.48
2022-08-29T14:44:24.873Z,31.71
2022-08-29T14:46:52.058Z,31.55
2022-08-29T14:49:19.269Z,31.58
2022-08-29T14:51:46.918Z,31.57
2022-08-29T14:54:14.140Z,31.54
2022-08-29T14:56:50.058Z,31.39
2022-08-29T14:59:18.491Z,31.48
2022-08-29T15:01:51.293Z,31.54
2022-08-29T15:04:36.549Z,31.29
2022-08-29T15:07:06.879Z,31.49
2022-08-29T15:09:34.666Z,31.35
2022-08-29T15:12:01.964Z,31.42
2022-08-29T15:14:29.113Z,31.45
2022-08-29T15:16:56.566Z,31.40
2022-08-29T15:22:11.812Z,31.38
2022-08-29T15:24:39.453Z,31.30
2022-08-29T15:27:06.929Z,31.28
2022-08-29T15:29:35.019Z,31.09
2022-08-29T15:32:02.213Z,31.20
2022-08-29T15:34:29.405Z,30.67
2022-08-29T15:36:57.207Z,30.67
2022-08-29T15:39:28.152Z,30.88
2022-08-29T15:41:55.973Z,31.02
2022-08-29T15:44:23.800Z,31.13
2022-08-29T15:46:52.571Z,31.30
2022-08-29T15:49:20.782Z,31.31
2022-08-29T15:51:49.426Z,31.08
2022-08-29T15:54:16.995Z,30.98
2022-08-29T15:56:44.181Z,31.09
2022-08-29T15:59:12.351Z,30.90
2022-08-29T16:01:43.689Z,30.94
2022-08-29T16:04:12.110Z,30.95
2022-08-29T16:06:39.290Z,30.70
2022-08-29T16:09:15.407Z,30.66
2022-08-29T16:11:44.639Z,30.61
2022-08-29T16:14:57.551Z,30.73
2022-08-29T16:16:59.667Z,30.93
2022-08-29T16:19:29.960Z,30.89
2022-08-29T16:22:00.107Z,30.83
2022-08-29T16:24:28.246Z,30.82
2022-08-29T16:26:55.508Z,30.45
2022-08-29T16:29:26.242Z,30.42
2022-08-29T16:31:58.069Z,30.08
2022-08-29T16:34:28.614Z,30.65
2022-08-29T16:36:56.861Z,30.64
2022-08-29T16:39:24.009Z,30.46
2022-08-29T16:41:51.646Z,30.40
2022-08-29T16:44:19.627Z,30.53
2022-08-29T16:46:46.815Z,30.47
2022-08-29T16:49:14.144Z,30.36
2022-08-29T16:51:41.782Z,30.48
2022-08-29T16:54:08.963Z,30.39
2022-08-29T16:56:36.209Z,30.30
2022-08-29T16:59:04.490Z,30.30
2022-08-29T17:01:37.809Z,30.38
2022-08-29T17:04:07.273Z,30.45
2022-08-29T17:06:34.474Z,30.29
2022-08-29T17:09:05.283Z,30.35
2022-08-29T17:11:35.814Z,30.25
2022-08-29T17:14:03.045Z,30.28
2022-08-29T17:16:30.388Z,30.27
2022-08-29T17:18:57.852Z,30.29
2022-08-29T17:21:25.837Z,30.19
2022-08-29T17:23:53.220Z,30.13
2022-08-29T17:26:20.941Z,30.06
2022-08-29T17:28:48.292Z,29.95
2022-08-29T17:31:15.991Z,30.05
2022-08-29T17:33:43.468Z,30.07
2022-08-29T17:36:11.039Z,29.94
2022-08-29T17:38:42.332Z,29.85
2022-08-29T17:41:15.054Z,30.06
2022-08-29T17:43:44.713Z,30.03
2022-08-29T17:46:12.431Z,29.89
2022-08-29T17:48:41.073Z,29.95
2022-08-29T17:51:08.266Z,29.82
2022-08-29T17:53:35.706Z,29.80
2022-08-29T17:56:12.582Z,29.77
2022-08-29T17:58:40.429Z,29.84
2022-08-29T18:01:12.366Z,29.80
2022-08-29T18:03:43.098Z,29.81
2022-08-29T18:06:10.455Z,29.58
2022-08-29T18:08:39.024Z,29.69
2022-08-29T18:11:06.570Z,29.52
2022-08-29T18:13:33.953Z,29.54
2022-08-29T18:16:02.016Z,29.32
2022-08-29T18:18:29.838Z,29.43
2022-08-29T18:20:57.005Z,29.39
2022-08-29T18:23:24.207Z,29.39
2022-08-29T18:25:51.695Z,29.32
2022-08-29T18:28:19.925Z,29.33
2022-08-29T18:30:48.267Z,29.19
2022-08-29T18:33:16.134Z,29.26
2022-08-29T18:35:43.783Z,29.16
2022-08-29T18:38:11.858Z,29.16
2022-08-29T18:40:47.330Z,29.10
2022-08-29T18:43:18.672Z,28.85
2022-08-29T18:45:50.687Z,29.04
2022-08-29T18:48:18.441Z,29.03
2022-08-29T18:50:47.384Z,28.94
2022-08-29T18:53:16.214Z,28.86
2022-08-29T18:55:49.212Z,28.66
2022-08-29T18:58:19.427Z,28.70
2022-08-29T19:00:47.967Z,28.76
2022-08-29T19:03:15.316Z,28.65
2022-08-29T19:05:49.770Z,28.49
2022-08-29T19:08:17.608Z,28.67
2022-08-29T19:10:46.843Z,28.49
2022-08-29T19:13:14.682Z,28.54
2022-08-29T19:15:43.109Z,28.49
2022-08-29T19:18:11.227Z,28.53
2022-08-29T19:21:00.195Z,28.52
2022-08-29T19:23:32.745Z,28.43
2022-08-29T19:26:00.545Z,28.25
2022-08-29T19:28:28.086Z,28.08
2022-08-29T19:30:57.516Z,28.18
2022-08-29T19:33:26.291Z,28.09
2022-08-29T19:35:54.068Z,27.99
2022-08-29T19:38:22.594Z,28.09
2022-08-29T19:40:56.463Z,28.07
2022-08-29T19:43:25.195Z,27.98
2022-08-29T19:45:52.590Z,28.00
2022-08-29T19:48:20.139Z,27.91
2022-08-29T19:50:48.764Z,27.88
2022-08-29T19:53:24.645Z,27.81
2022-08-29T19:55:55.462Z,27.66
2022-08-29T19:58:23.639Z,27.76
2022-08-29T20:01:03.108Z,27.59
2022-08-29T20:03:30.779Z,27.58
2022-08-29T20:05:59.685Z,27.57
2022-08-29T20:08:27.693Z,27.49
2022-08-29T20:10:58.707Z,27.52
2022-08-29T20:13:28.287Z,27.51
2022-08-29T20:16:08.244Z,27.46
2022-08-29T20:18:35.587Z,27.32
2022-08-29T20:21:03.182Z,27.33
2022-08-29T20:23:31.760Z,27.32
2022-08-29T20:26:01.603Z,27.40
2022-08-29T20:28:30.464Z,27.24
2022-08-29T20:30:57.674Z,27.15
2022-08-29T20:33:24.917Z,27.21
2022-08-29T20:36:11.205Z,26.98
2022-08-29T20:38:38.340Z,27.13
2022-08-29T20:41:05.765Z,27.01
2022-08-29T20:43:32.906Z,27.05
2022-08-29T20:46:00.253Z,27.01
2022-08-29T20:48:31.177Z,26.78
2022-08-29T20:50:59.902Z,26.93
2022-08-29T20:53:31.769Z,27.00
2022-08-29T20:56:00.159Z,26.84
2022-08-29T20:58:29.034Z,26.87
2022-08-29T21:00:57.292Z,26.79
2022-08-29T21:03:43.456Z,26.83
2022-08-29T21:06:11.363Z,26.85
2022-08-29T21:08:39.831Z,26.72
2022-08-29T21:11:07.784Z,26.75
2022-08-29T21:13:35.289Z,26.72
2022-08-29T21:16:04.619Z,26.51
2022-08-29T21:18:31.839Z,26.69
2022-08-29T21:20:59.321Z,26.65
2022-08-29T21:23:26.565Z,26.51
2022-08-29T21:25:54.144Z,26.56
2022-08-29T21:28:21.690Z,26.60
2022-08-29T21:30:49.633Z,26.53
2022-08-29T21:33:16.875Z,26.46
2022-08-29T21:35:44.429Z,26.37
2022-08-29T21:38:11.670Z,26.49
2022-08-29T21:40:50.522Z,26.40
2022-08-29T21:43:20.878Z,26.47
2022-08-29T21:45:48.097Z,26.33
2022-08-29T21:48:16.251Z,26.31
2022-08-29T21:50:44.831Z,26.19
2022-08-29T21:53:14.163Z,26.07
2022-08-29T21:55:41.608Z,26.31
2022-08-29T21:58:09.350Z,26.15
2022-08-29T22:00:36.928Z,26.09
2022-08-29T22:03:05.918Z,25.84
2022-08-29T22:05:33.547Z,26.08
2022-08-29T22:08:04.252Z,26.04
2022-08-29T22:10:33.981Z,26.08
2022-08-29T22:13:01.586Z,26.09
2022-08-29T22:15:47.609Z,26.14
2022-08-29T22:18:15.421Z,26.01
2022-08-29T22:20:43.707Z,25.97
2022-08-29T22:23:11.191Z,26.03
2022-08-29T22:25:38.614Z,26.00
2022-08-29T22:28:05.830Z,25.94
2022-08-29T22:30:33.072Z,25.87
2022-08-29T22:33:00.640Z,25.89
2022-08-29T22:35:28.835Z,25.74
2022-08-29T22:37:56.002Z,25.86
2022-08-29T22:40:23.513Z,25.86
2022-08-29T22:42:50.884Z,25.94
2022-08-29T22:45:18.155Z,25.87
2022-08-29T22:47:46.371Z,25.86
2022-08-29T22:50:15.643Z,25.86
2022-08-29T22:52:43.833Z,25.69
2022-08-29T22:55:13.518Z,25.64
2022-08-29T22:57:42.030Z,25.65
2022-08-29T23:00:09.537Z,25.67
2022-08-29T23:02:37.110Z,25.63
2022-08-29T23:05:08.927Z,25.67
2022-08-29T23:07:37.541Z,25.65
2022-08-29T23:10:05.838Z,25.63
2022-08-29T23:12:35.042Z,25.65
2022-08-29T23:15:04.215Z,25.48
2022-08-29T23:17:31.407Z,25.52
2022-08-29T23:19:58.603Z,25.59
2022-08-29T23:22:26.482Z,25.45
2022-08-29T23:24:58.779Z,25.41
2022-08-29T23:27:30.050Z,25.39
2022-08-29T23:29:57.741Z,25.40
2022-08-29T23:32:24.897Z,25.48
2022-08-29T23:34:52.293Z,25.37
2022-08-29T23:37:19.503Z,25.41
2022-08-29T23:39:46.813Z,25.22
2022-08-29T23:42:14.507Z,25.13
2022-08-29T23:44:41.653Z,25.29
2022-08-29T23:47:08.920Z,25.31
2022-08-29T23:49:36.421Z,25.05
2022-08-29T23:52:04.000Z,25.17
2022-08-29T23:54:31.856Z,25.22
2022-08-29T23:56:59.394Z,25.12
2022-08-29T23:59:45.419Z,25.15
